Time;durP1;ratioP1;P1;durP2;ratioP2;P2;SDS_P1;SDS_P2;PMS_P1;PMS_P2;Temp;Humidity;BMP_temperature;BMP_pressure;BME280_temperature;BME280_humidity;BME280_pressure;Samples;Min_cycle;Max_cycle;Signal;HPM_P1;HPM_P2
2023/08/10 00:00:48;;;;;;;2.30;1.40;;;19.20;99.90;;;18.73;100.00;101358.97;4138140;28;20026;-76
2023/08/10 00:02:49;;;;;;;2.53;1.33;;;19.20;99.90;;;18.70;100.00;101356.69;4138238;28;20034;-76
2023/08/10 00:04:49;;;;;;;1.75;1.25;;;19.20;99.90;;;18.72;100.00;101349.31;4141072;28;20030;-76
2023/08/10 00:06:50;;;;;;;1.90;1.40;;;19.20;99.90;;;18.71;100.00;101361.00;4169697;28;20466;-76
2023/08/10 00:08:51;;;;;;;3.75;1.83;;;19.20;99.90;;;18.71;100.00;101366.38;4154361;28;20022;-76
2023/08/10 00:10:52;;;;;;;2.00;1.33;;;19.20;99.90;;;18.70;100.00;101367.38;4169610;28;20181;-76
2023/08/10 00:12:53;;;;;;;1.95;1.33;;;19.20;99.90;;;18.71;100.00;101361.00;4154258;28;20048;-76
2023/08/10 00:14:54;;;;;;;3.22;1.48;;;19.20;99.90;;;18.67;100.00;101354.41;4153883;28;20030;-76
2023/08/10 00:16:55;;;;;;;1.95;1.20;;;19.20;99.90;;;18.68;100.00;101352.56;4154046;28;20030;-76
2023/08/10 00:18:56;;;;;;;3.35;1.27;;;19.20;99.90;;;18.67;100.00;101353.56;4140350;28;20490;-76
2023/08/10 00:20:56;;;;;;;2.08;1.50;;;19.20;99.90;;;18.70;100.00;101359.34;4152365;28;20080;-76
2023/08/10 00:22:57;;;;;;;1.80;1.27;;;19.20;99.90;;;18.67;100.00;101343.69;4154113;28;20038;-76
2023/08/10 00:24:58;;;;;;;2.00;1.50;;;19.20;99.90;;;18.68;100.00;101352.56;4169365;28;20018;-76
2023/08/10 00:26:59;;;;;;;2.88;1.25;;;19.20;99.90;;;18.67;100.00;101346.38;4152681;28;20022;-75
2023/08/10 00:29:00;;;;;;;3.42;1.45;;;19.20;99.90;;;18.64;100.00;101349.44;4153720;28;20032;-75
2023/08/10 00:31:02;;;;;;;2.35;1.50;;;19.10;99.90;;;18.56;100.00;101335.41;4168942;28;20412;-75
2023/08/10 00:33:03;;;;;;;1.65;1.23;;;19.10;99.90;;;18.59;100.00;101337.69;4152764;28;20040;-76
2023/08/10 00:35:05;;;;;;;1.77;1.30;;;19.10;99.90;;;18.55;100.00;101352.44;4153860;28;20489;-75
2023/08/10 00:37:06;;;;;;;2.55;1.40;;;19.10;99.90;;;18.57;100.00;101351.25;4168941;28;20137;-76
2023/08/10 00:39:07;;;;;;;2.10;1.40;;;19.00;99.90;;;18.54;100.00;101332.94;4152375;28;20014;-76
2023/08/10 00:41:09;;;;;;;2.38;1.55;;;19.00;99.90;;;18.53;100.00;101333.09;4153807;28;20084;-76
2023/08/10 00:43:10;;;;;;;2.85;1.02;;;19.00;99.90;;;18.41;100.00;101324.75;4153714;28;20069;-76
2023/08/10 00:45:11;;;;;;;1.88;1.40;;;19.00;99.90;;;18.46;100.00;101327.69;4139542;28;20502;-76
2023/08/10 00:47:14;;;;;;;2.15;1.30;;;18.90;99.90;;;18.42;100.00;101318.41;4153719;28;20057;-76
2023/08/10 00:49:15;;;;;;;2.38;1.38;;;18.90;99.90;;;18.39;100.00;101332.16;4168779;28;20392;-75
2023/08/10 00:51:16;;;;;;;2.53;1.73;;;18.90;99.90;;;18.33;100.00;101330.25;4168799;28;20077;-76
2023/08/10 00:53:18;;;;;;;1.90;1.30;;;18.80;99.90;;;18.34;100.00;101344.44;4168675;28;20432;-76
2023/08/10 00:55:19;;;;;;;2.15;1.23;;;18.80;99.90;;;18.29;100.00;101353.00;4153694;28;20100;-76
2023/08/10 00:57:21;;;;;;;2.72;1.38;;;18.80;99.90;;;18.24;100.00;101358.09;4160881;28;20025;-76
2023/08/10 00:59:22;;;;;;;2.13;1.38;;;18.80;99.90;;;18.19;100.00;101360.50;4142178;28;20513;-76
2023/08/10 01:01:24;;;;;;;2.15;1.27;;;18.70;99.90;;;18.20;100.00;101378.19;4135907;28;20498;-76
2023/08/10 01:03:25;;;;;;;3.95;1.70;;;18.70;99.90;;;18.15;100.00;101384.13;4136356;28;20035;-76
2023/08/10 01:05:38;;;;;;;2.70;1.73;;;18.60;99.90;;;18.08;100.00;101385.88;4137348;28;20092;-76
2023/08/10 01:08:00;;;;;;;2.38;1.33;;;18.60;99.90;;;18.07;100.00;101399.44;4135967;28;20026;-76
2023/08/10 01:10:39;;;;;;;2.20;1.48;;;18.60;99.90;;;18.05;100.00;101412.13;4141913;28;20033;-75
2023/08/10 01:12:51;;;;;;;5.22;1.58;;;18.60;99.90;;;18.05;100.00;101412.13;4152256;28;20100;-75
2023/08/10 01:15:40;;;;;;;3.80;1.83;;;18.60;99.90;;;18.06;100.00;101403.09;4152959;28;20025;-76
2023/08/10 01:17:51;;;;;;;2.00;1.35;;;18.50;99.90;;;18.06;100.00;101387.91;4101815;29;20043;-76
2023/08/10 01:19:54;;;;;;;4.70;1.88;;;18.60;99.90;;;18.11;100.00;101387.34;4127643;28;20396;-75
2023/08/10 01:22:32;;;;;;;3.72;1.70;;;18.60;99.90;;;18.09;100.00;101384.03;4168209;28;20053;-76
2023/08/10 01:24:41;;;;;;;3.88;1.70;;;18.60;99.90;;;18.05;100.00;101385.41;4153127;28;20026;-76
2023/08/10 01:26:43;;;;;;;2.42;1.50;;;18.60;99.90;;;18.08;100.00;101385.03;4151730;28;20037;-76
2023/08/10 01:28:44;;;;;;;3.05;1.70;;;18.50;99.90;;;18.10;100.00;101394.50;4152699;28;20045;-76
2023/08/10 01:30:45;;;;;;;1.92;1.60;;;18.60;99.90;;;18.08;100.00;101393.06;4149051;28;20457;-76
2023/08/10 01:32:46;;;;;;;2.22;1.42;;;18.60;99.90;;;18.08;100.00;101404.56;4135725;28;20030;-75
2023/08/10 01:34:47;;;;;;;2.85;1.50;;;18.60;99.90;;;18.08;100.00;101406.41;4135647;28;20420;-75
2023/08/10 01:36:48;;;;;;;1.95;1.38;;;18.60;99.90;;;18.14;100.00;101411.81;4136684;28;20034;-76
2023/08/10 01:38:49;;;;;;;2.67;1.60;;;18.60;99.90;;;18.16;100.00;101412.44;4137195;28;20403;-75
2023/08/10 01:40:51;;;;;;;2.20;1.40;;;18.70;99.90;;;18.21;100.00;101412.72;4151820;28;20049;-75
2023/08/10 01:42:52;;;;;;;2.10;1.40;;;18.70;99.90;;;18.21;100.00;101385.19;4151717;28;20026;-75
2023/08/10 01:44:53;;;;;;;4.53;1.70;;;18.70;99.90;;;18.27;100.00;101352.38;4167773;28;20034;-75
2023/08/10 01:47:00;;;;;;;3.58;1.30;;;18.80;99.90;;;18.32;100.00;101287.69;4151540;28;20022;-75
2023/08/10 01:49:03;;;;;;;5.40;2.22;;;18.80;99.90;;;18.35;100.00;101226.69;4151759;28;20033;-76
2023/08/10 01:51:06;;;;;;;2.78;1.83;;;18.80;99.90;;;18.40;100.00;101236.81;4167948;28;20036;-76
2023/08/10 01:53:17;;;;;;;2.58;1.60;;;18.90;99.90;;;18.52;100.00;101328.78;4167666;28;20029;-76
2023/08/10 01:55:19;;;;;;;4.00;1.75;;;19.00;99.90;;;18.58;100.00;101360.91;4167831;28;20108;-76
2023/08/10 01:57:21;;;;;;;2.45;1.40;;;19.00;99.90;;;18.62;100.00;101329.28;4159840;28;20089;-76
2023/08/10 01:59:22;;;;;;;3.60;1.30;;;19.10;99.90;;;18.69;100.00;101306.94;4140749;28;20526;-76
2023/08/10 02:01:22;;;;;;;4.45;1.33;;;19.20;99.90;;;18.71;100.00;101278.16;4148740;28;20034;-76
2023/08/10 02:03:23;;;;;;;2.45;1.48;;;19.20;99.90;;;18.68;100.00;101254.50;4152608;28;20034;-76
2023/08/10 02:05:25;;;;;;;4.00;1.58;;;19.20;99.90;;;18.67;100.00;101231.47;4167872;28;20532;-76
2023/08/10 02:07:26;;;;;;;1.88;1.50;;;19.20;99.90;;;18.63;100.00;101222.22;4167590;28;20021;-76
2023/08/10 02:09:27;;;;;;;2.30;1.42;;;19.10;99.90;;;18.61;100.00;101221.56;4151338;28;20065;-76
2023/08/10 02:11:28;;;;;;;3.58;1.63;;;19.20;99.90;;;18.69;100.00;101225.94;4167746;28;20029;-76
2023/08/10 02:13:29;;;;;;;2.08;1.55;;;19.20;99.90;;;18.68;100.00;101193.03;4152614;28;20033;-76
2023/08/10 02:15:30;;;;;;;3.75;1.50;;;19.20;99.90;;;18.73;100.00;101197.78;4165202;28;20028;-76
2023/08/10 02:17:35;;;;;;;1.50;1.10;;;19.20;99.90;;;18.71;100.00;101219.38;4152481;28;20512;-76
2023/08/10 02:19:36;;;;;;;2.03;1.38;;;19.20;99.90;;;18.70;100.00;101212.34;4132085;28;20035;-76
2023/08/10 02:21:37;;;;;;;2.17;1.45;;;19.20;99.90;;;18.72;100.00;101186.28;4134980;28;20077;-76
2023/08/10 02:23:38;;;;;;;3.05;1.60;;;19.20;99.90;;;18.74;100.00;101138.78;4136142;28;20073;-76
2023/08/10 02:25:38;;;;;;;3.15;1.50;;;19.20;99.90;;;18.69;100.00;101070.94;4142147;28;20064;-76
2023/08/10 02:27:40;;;;;;;2.03;1.48;;;19.20;99.90;;;18.69;100.00;101063.75;4134838;28;20421;-76
2023/08/10 02:29:41;;;;;;;2.25;1.63;;;19.20;99.90;;;18.70;100.00;101054.69;4135828;28;20122;-76
2023/08/10 02:31:42;;;;;;;3.00;1.50;;;19.20;99.90;;;18.64;100.00;101047.47;4136096;28;20026;-76
2023/08/10 02:33:43;;;;;;;6.93;2.42;;;19.20;99.90;;;18.67;100.00;101087.16;4136013;28;20030;-76
2023/08/10 02:35:44;;;;;;;2.95;1.27;;;19.20;99.90;;;18.68;100.00;101120.88;4136015;28;20113;-76
2023/08/10 02:37:45;;;;;;;2.38;1.50;;;19.20;99.90;;;18.65;100.00;101182.75;4136072;28;20394;-76
2023/08/10 02:39:46;;;;;;;3.47;1.33;;;19.20;99.90;;;18.70;100.00;101273.81;4153572;28;20037;-76
2023/08/10 02:41:47;;;;;;;1.80;1.45;;;19.20;99.90;;;18.77;100.00;101349.56;4150966;28;20019;-76
2023/08/10 02:43:47;;;;;;;4.35;1.83;;;19.20;99.90;;;18.79;100.00;101376.91;4152433;28;20034;-76
2023/08/10 02:45:48;;;;;;;2.33;1.30;;;19.30;99.90;;;18.83;100.00;101392.56;4167305;28;20028;-76
2023/08/10 02:47:49;;;;;;;1.55;1.13;;;19.30;99.90;;;18.90;100.00;101393.44;4151061;28;20026;-76
2023/08/10 02:49:50;;;;;;;2.72;1.25;;;19.30;99.90;;;18.93;100.00;101360.97;4167191;28;20416;-76
2023/08/10 02:51:51;;;;;;;4.47;0.90;;;19.40;99.90;;;18.91;100.00;101353.13;4151997;28;20121;-76
2023/08/10 02:53:52;;;;;;;3.35;1.83;;;19.40;99.90;;;18.86;100.00;101350.22;4167342;28;20025;-76
2023/08/10 02:55:52;;;;;;;2.13;1.45;;;19.40;99.90;;;18.84;100.00;101368.31;4152145;28;20049;-76
2023/08/10 02:57:53;;;;;;;2.10;1.30;;;19.30;99.90;;;18.77;100.00;101357.56;4140139;28;20682;-76
2023/08/10 02:59:54;;;;;;;1.70;1.30;;;19.30;99.90;;;18.74;100.00;101360.63;4136674;28;20040;-76
2023/08/10 03:01:55;;;;;;;4.03;1.83;;;19.30;99.90;;;18.74;100.00;101382.00;4144987;28;20033;-76
2023/08/10 03:03:56;;;;;;;2.00;1.30;;;19.30;99.90;;;18.76;100.00;101382.63;4142785;28;20086;-76
2023/08/10 03:05:57;;;;;;;1.58;1.17;;;19.30;99.90;;;18.78;100.00;101369.91;4145850;28;20022;-76
2023/08/10 03:07:58;;;;;;;1.27;0.98;;;19.30;99.90;;;18.81;100.00;101360.69;4151930;28;20482;-76
2023/08/10 03:09:59;;;;;;;1.65;0.77;;;19.30;99.90;;;18.77;100.00;101352.22;4152149;28;20025;-76
2023/08/10 03:11:59;;;;;;;2.30;1.00;;;19.30;99.90;;;18.79;100.00;101350.16;4167376;28;20029;-75
2023/08/10 03:14:00;;;;;;;2.58;1.05;;;19.30;99.90;;;18.79;100.00;101338.66;4150594;28;20052;-76
2023/08/10 03:16:01;;;;;;;2.15;1.25;;;19.30;99.90;;;18.79;100.00;101325.28;4150279;28;20080;-76
2023/08/10 03:18:03;;;;;;;2.90;0.98;;;19.30;99.90;;;18.81;100.00;101306.38;4148051;28;20031;-75
2023/08/10 03:20:12;;;;;;;1.50;1.10;;;19.30;99.90;;;18.81;100.00;101290.34;4134488;28;20030;-76
2023/08/10 03:22:13;;;;;;;1.35;0.85;;;19.30;99.90;;;18.78;100.00;101279.03;4156551;28;20025;-76
2023/08/10 03:24:14;;;;;;;2.15;1.10;;;19.30;99.90;;;18.75;100.00;101300.81;4119781;28;20030;-76
2023/08/10 03:26:15;;;;;;;2.03;1.05;;;19.30;99.90;;;18.75;100.00;101306.16;4150762;28;20486;-76
2023/08/10 03:28:15;;;;;;;2.13;1.33;;;19.30;99.90;;;18.73;100.00;101289.47;4135739;28;20078;-76
2023/08/10 03:30:16;;;;;;;2.55;1.33;;;19.20;99.90;;;18.70;100.00;101260.47;4135234;28;20406;-75
2023/08/10 03:32:17;;;;;;;3.95;1.30;;;19.20;99.90;;;18.69;100.00;101248.16;4134356;28;20030;-76
2023/08/10 03:34:18;;;;;;;2.00;1.15;;;19.20;99.90;;;18.67;100.00;101217.28;4135916;28;20030;-76
2023/08/10 03:36:19;;;;;;;2.13;1.08;;;19.20;99.90;;;18.65;100.00;101187.25;4134649;28;20030;-76
2023/08/10 03:38:20;;;;;;;2.58;1.40;;;19.20;99.90;;;18.62;100.00;101183.13;4142185;28;20073;-76
2023/08/10 03:40:21;;;;;;;2.08;1.02;;;19.10;99.90;;;18.61;100.00;101165.44;4152182;28;20029;-76
2023/08/10 03:42:22;;;;;;;3.03;1.30;;;19.10;99.90;;;18.61;100.00;101122.69;4137456;28;20027;-76
2023/08/10 03:44:23;;;;;;;2.10;1.50;;;19.10;99.90;;;18.64;100.00;101073.34;4138640;28;20065;-76
2023/08/10 03:46:23;;;;;;;1.80;1.13;;;19.10;99.90;;;18.65;100.00;101046.44;4147539;28;20026;-76
2023/08/10 03:48:24;;;;;;;3.10;1.33;;;19.10;99.90;;;18.71;100.00;101091.09;4138323;28;20493;-76
2023/08/10 03:50:25;;;;;;;2.88;1.08;;;19.20;99.90;;;18.66;100.00;101162.19;4138634;28;20026;-76
2023/08/10 03:52:26;;;;;;;3.53;1.40;;;19.20;99.90;;;18.66;100.00;101256.56;4143803;28;20514;-76
2023/08/10 03:54:31;;;;;;;1.75;1.17;;;19.20;99.90;;;18.75;100.00;101332.88;4137337;28;20049;-76
2023/08/10 03:56:32;;;;;;;4.40;1.50;;;19.20;99.90;;;18.80;100.00;101337.63;4137555;28;20069;-75
2023/08/10 03:58:33;;;;;;;2.33;1.10;;;19.30;99.90;;;18.80;100.00;101292.19;4138477;28;20026;-75
2023/08/10 04:00:34;;;;;;;1.77;1.00;;;19.30;99.90;;;18.79;100.00;101286.03;4137791;28;20030;-76
2023/08/10 04:02:35;;;;;;;1.83;1.20;;;19.30;99.90;;;18.72;100.00;101282.50;4136817;28;20521;-76
2023/08/10 04:04:36;;;;;;;9.50;1.38;;;19.30;99.90;;;18.71;100.00;101293.38;4164181;28;20067;-76
2023/08/10 04:06:37;;;;;;;4.90;1.30;;;19.20;99.90;;;18.74;100.00;101301.00;4153270;28;20026;-76
2023/08/10 04:08:38;;;;;;;1.80;1.00;;;19.20;99.90;;;18.75;100.00;101319.53;4153148;28;20532;-76
2023/08/10 04:10:39;;;;;;;2.67;1.30;;;19.30;99.90;;;18.75;100.00;101295.47;4154276;28;20037;-76
2023/08/10 04:12:39;;;;;;;1.80;1.17;;;19.30;99.90;;;18.84;100.00;101281.94;4154314;28;20500;-76
2023/08/10 04:14:41;;;;;;;1.63;1.00;;;19.30;99.90;;;18.85;100.00;101265.69;4154142;28;20030;-76
2023/08/10 04:16:41;;;;;;;1.30;1.00;;;19.30;99.90;;;18.84;100.00;101250.69;4154099;28;20053;-76
2023/08/10 04:18:43;;;;;;;1.55;1.00;;;19.30;99.90;;;18.85;100.00;101232.78;4143759;28;20033;-76
2023/08/10 04:20:44;;;;;;;3.15;1.40;;;19.30;99.90;;;18.85;100.00;101216.75;4149295;28;20038;-75
2023/08/10 04:22:45;;;;;;;2.50;1.05;;;19.30;99.90;;;18.80;100.00;101193.28;4137680;28;20034;-76
2023/08/10 04:24:46;;;;;;;1.98;1.02;;;19.30;99.90;;;18.78;100.00;101180.16;4136773;28;20092;-75
2023/08/10 04:26:47;;;;;;;3.83;1.10;;;19.30;99.90;;;18.77;100.00;101169.63;4137874;28;20560;-75
2023/08/10 04:28:47;;;;;;;3.70;1.67;;;19.30;99.90;;;18.80;100.00;101187.94;4136522;28;20023;-75
2023/08/10 04:30:48;;;;;;;4.63;1.95;;;19.30;99.90;;;18.81;100.00;101205.66;4137258;28;20057;-76
2023/08/10 04:32:50;;;;;;;2.20;1.20;;;19.30;99.90;;;18.82;100.00;101225.19;4145766;28;20046;-75
2023/08/10 04:34:52;;;;;;;1.67;1.20;;;19.30;99.90;;;18.84;100.00;101228.47;4137768;28;20038;-75
2023/08/10 04:36:53;;;;;;;1.77;1.15;;;19.30;99.90;;;18.83;100.00;101202.75;4137777;28;20046;-76
2023/08/10 04:38:54;;;;;;;2.38;1.60;;;19.30;99.90;;;18.83;100.00;101176.84;4141419;28;20030;-75
2023/08/10 04:40:55;;;;;;;1.95;1.15;;;19.30;99.90;;;18.82;100.00;101161.03;4147092;28;20030;-76
2023/08/10 04:42:58;;;;;;;1.77;1.10;;;19.30;99.90;;;18.81;100.00;101151.34;4136358;28;20026;-76
2023/08/10 04:44:59;;;;;;;3.20;1.20;;;19.30;99.90;;;18.79;100.00;101176.44;4136108;28;20034;-76
2023/08/10 04:47:00;;;;;;;2.60;1.13;;;19.30;99.90;;;18.76;100.00;101187.50;4137415;28;20085;-76
2023/08/10 04:49:01;;;;;;;2.13;0.90;;;19.30;99.90;;;18.75;100.00;101196.56;4137559;28;20114;-76
2023/08/10 04:51:03;;;;;;;2.63;1.38;;;19.20;99.90;;;18.70;100.00;101195.50;4137405;28;20958;-76
2023/08/10 04:53:05;;;;;;;1.40;1.10;;;19.20;99.90;;;18.66;100.00;101192.41;4136107;28;20109;-76
2023/08/10 04:55:06;;;;;;;2.28;1.20;;;19.20;99.90;;;18.67;100.00;101196.72;4135964;28;20041;-76
2023/08/10 04:57:07;;;;;;;4.07;1.23;;;19.20;99.90;;;18.66;100.00;101202.28;4138028;28;20109;-75
2023/08/10 04:59:08;;;;;;;2.00;1.20;;;19.20;99.90;;;18.65;100.00;101214.81;4136144;28;20041;-75
2023/08/10 05:01:12;;;;;;;1.30;1.00;;;19.20;99.90;;;18.65;100.00;101214.81;4159809;28;20025;-75
2023/08/10 05:03:14;;;;;;;1.80;1.20;;;19.20;99.90;;;18.61;100.00;101216.22;4152089;28;20045;-75
2023/08/10 05:05:15;;;;;;;2.55;1.08;;;19.10;99.90;;;18.61;100.00;101239.44;4168647;28;20029;-76
2023/08/10 05:07:15;;;;;;;1.77;1.00;;;19.10;99.90;;;18.55;100.00;101246.38;4153425;28;20029;-76
2023/08/10 05:09:16;;;;;;;2.47;1.23;;;19.10;99.90;;;18.53;100.00;101261.81;4153338;28;20022;-76
2023/08/10 05:11:17;;;;;;;2.72;1.30;;;19.00;99.90;;;18.50;100.00;101258.69;4149948;28;20041;-76
2023/08/10 05:13:18;;;;;;;3.40;1.10;;;19.00;99.90;;;18.46;100.00;101252.03;4146304;28;20037;-76
2023/08/10 05:15:19;;;;;;;3.17;1.20;;;19.00;99.90;;;18.44;100.00;101270.13;4144476;28;20034;-76
2023/08/10 05:17:20;;;;;;;3.15;1.20;;;19.00;99.90;;;18.37;100.00;101275.41;4137033;28;20030;-76
2023/08/10 05:19:21;;;;;;;1.50;1.00;;;18.90;99.90;;;18.35;100.00;101274.78;4135599;28;20026;-76
2023/08/10 05:21:22;;;;;;;1.52;1.02;;;18.90;99.90;;;18.28;100.00;101267.75;4137100;28;20026;-76
2023/08/10 05:23:23;;;;;;;1.88;1.20;;;18.90;99.90;;;18.21;100.00;101281.88;4136803;28;20041;-75
2023/08/10 05:25:24;;;;;;;2.13;1.35;;;18.80;99.90;;;18.12;100.00;101280.34;4136848;28;20077;-76
2023/08/10 05:27:25;;;;;;;1.58;1.10;;;18.70;99.90;;;18.07;100.00;101273.94;4135543;28;20050;-76
2023/08/10 05:29:26;;;;;;;2.28;1.20;;;18.60;99.90;;;18.00;100.00;101275.72;4146089;28;20049;-76
2023/08/10 05:31:27;;;;;;;1.52;1.00;;;18.60;99.90;;;17.99;100.00;101266.88;4143428;28;20030;-76
2023/08/10 05:33:27;;;;;;;1.83;1.40;;;18.50;99.90;;;17.98;100.00;101275.09;4151712;28;20033;-76
2023/08/10 05:35:28;;;;;;;1.90;1.35;;;18.50;99.90;;;17.92;100.00;101270.50;4151758;28;20084;-76
2023/08/10 05:37:30;;;;;;;1.85;1.00;;;18.50;99.90;;;17.91;100.00;101271.53;4153029;28;20049;-76
2023/08/10 05:39:31;;;;;;;3.75;1.13;;;18.50;99.90;;;17.93;100.00;101266.81;4152876;28;20025;-76
2023/08/10 05:41:31;;;;;;;1.63;1.10;;;18.40;99.90;;;17.91;100.00;101256.34;4151745;28;20033;-76
2023/08/10 05:43:32;;;;;;;3.00;1.10;;;18.40;99.90;;;17.97;100.00;101257.41;4152742;28;20033;-76
2023/08/10 05:45:33;;;;;;;3.47;1.50;;;18.50;99.90;;;18.01;100.00;101269.38;4151361;28;20037;-76
2023/08/10 05:47:35;;;;;;;3.05;1.10;;;18.50;99.90;;;18.02;100.00;101261.16;4151700;28;20041;-76
2023/08/10 05:49:36;;;;;;;1.52;1.10;;;18.50;99.90;;;18.06;100.00;101261.59;4150607;28;20065;-76
2023/08/10 05:51:37;;;;;;;1.60;1.05;;;18.50;99.90;;;18.18;100.00;101268.06;4162836;28;20551;-76
2023/08/10 05:53:37;;;;;;;2.22;1.40;;;18.60;99.90;;;18.22;100.00;101272.00;4161706;28;20437;-76
2023/08/10 05:55:38;;;;;;;3.40;1.27;;;18.60;99.90;;;18.29;100.00;101272.88;4152774;28;20060;-76
2023/08/10 05:57:40;;;;;;;2.30;1.00;;;18.70;99.90;;;18.31;100.00;101276.19;4152314;28;20389;-76
2023/08/10 05:59:41;;;;;;;2.13;1.40;;;18.70;99.90;;;18.31;100.00;101270.84;4137445;28;20493;-76
2023/08/10 06:01:43;;;;;;;2.45;1.58;;;18.70;99.90;;;18.34;100.00;101275.00;4136452;28;20061;-76
2023/08/10 06:03:44;;;;;;;1.88;1.42;;;18.70;99.90;;;18.31;100.00;101273.50;4135921;28;20037;-75
2023/08/10 06:05:46;;;;;;;2.53;1.48;;;18.70;99.90;;;18.35;100.00;101277.44;4142260;28;20026;-75
2023/08/10 06:07:47;;;;;;;2.15;1.13;;;18.80;99.90;;;18.40;100.00;101279.56;4137974;28;20022;-75
2023/08/10 06:09:48;;;;;;;1.67;1.10;;;18.90;99.90;;;18.44;100.00;101286.97;4136349;28;20022;-75
2023/08/10 06:11:49;;;;;;;1.60;1.05;;;18.90;99.90;;;18.55;100.00;101289.13;4136254;28;20026;-76
2023/08/10 06:13:50;;;;;;;2.67;1.08;;;19.00;99.90;;;18.67;100.00;101281.41;4134798;28;20117;-76
2023/08/10 06:15:51;;;;;;;2.30;1.20;;;19.10;99.90;;;18.84;100.00;101287.28;4156065;28;20501;-76
2023/08/10 06:17:52;;;;;;;2.17;1.10;;;19.20;99.90;;;18.96;100.00;101281.19;4136108;28;20033;-76
2023/08/10 06:19:53;;;;;;;1.73;1.00;;;19.30;99.90;;;19.02;100.00;101280.41;4136232;28;20023;-76
2023/08/10 06:21:54;;;;;;;1.45;1.15;;;19.40;99.90;;;19.12;100.00;101280.84;4134908;28;20536;-76
2023/08/10 06:23:55;;;;;;;1.95;1.13;;;19.50;99.90;;;19.26;100.00;101287.09;4135017;28;20023;-75
2023/08/10 06:25:56;;;;;;;1.63;1.05;;;19.60;99.90;;;19.35;100.00;101280.56;4150932;28;20026;-75
2023/08/10 06:27:58;;;;;;;1.30;0.88;;;19.70;99.90;;;19.45;100.00;101285.53;4136322;28;20065;-75
2023/08/10 06:29:58;;;;;;;3.30;1.20;;;19.80;99.90;;;19.54;100.00;101287.00;4134556;28;20449;-75
2023/08/10 06:32:00;;;;;;;1.40;1.00;;;19.90;99.90;;;19.57;100.00;101271.38;4134869;28;20037;-75
2023/08/10 06:34:05;;;;;;;2.28;1.08;;;20.00;99.90;;;19.67;100.00;101284.38;4134829;28;20022;-75
2023/08/10 06:36:10;;;;;;;1.35;1.13;;;20.10;99.90;;;19.71;100.00;101282.97;4136051;28;20054;-75
2023/08/10 06:38:11;;;;;;;1.38;0.80;;;20.20;99.90;;;19.73;100.00;101283.56;4135102;28;20030;-75
2023/08/10 06:40:14;;;;;;;2.15;1.27;;;20.20;99.90;;;19.87;100.00;101296.78;4161055;28;20049;-76
2023/08/10 06:42:18;;;;;;;1.63;0.95;;;20.30;99.90;;;19.98;100.00;101290.00;4139360;28;20041;-76
2023/08/10 06:44:20;;;;;;;2.17;1.25;;;20.40;99.90;;;20.19;100.00;101289.81;4167192;28;20017;-77
2023/08/10 06:46:21;;;;;;;1.77;1.00;;;20.50;99.90;;;20.35;100.00;101292.13;4150978;28;20034;-79
2023/08/10 06:48:22;;;;;;;3.50;1.15;;;20.70;99.90;;;20.49;100.00;101294.81;4167485;28;20116;-77
2023/08/10 06:50:23;;;;;;;6.32;1.55;;;20.80;99.90;;;20.64;100.00;101300.78;4152473;28;20564;-77
2023/08/10 06:52:24;;;;;;;6.07;2.00;;;20.90;99.90;;;20.71;100.00;101305.09;4152223;28;20087;-78
2023/08/10 06:54:27;;;;;;;3.47;1.00;;;21.00;99.90;;;20.77;100.00;101295.38;4167301;28;20049;-76
2023/08/10 06:56:27;;;;;;;2.25;1.30;;;21.10;99.90;;;20.86;100.00;101303.00;4151775;28;20036;-78
2023/08/10 06:58:28;;;;;;;1.90;1.20;;;21.10;99.90;;;20.96;100.00;101302.56;4135022;28;20026;-77
2023/08/10 07:00:30;;;;;;;3.88;1.50;;;21.20;99.90;;;20.91;100.00;101292.44;4135730;28;20030;-77
2023/08/10 07:02:31;;;;;;;2.58;1.20;;;21.30;99.90;;;20.94;100.00;101307.28;4134639;28;20038;-77
2023/08/10 07:04:31;;;;;;;2.72;1.23;;;21.30;99.90;;;20.90;100.00;101295.34;4135766;28;20049;-77
2023/08/10 07:06:32;;;;;;;1.77;1.30;;;21.20;99.90;;;20.88;100.00;101303.59;4134713;28;20033;-77
2023/08/10 07:08:33;;;;;;;1.30;0.85;;;21.20;99.90;;;20.86;100.00;101308.34;4138657;28;20061;-77
2023/08/10 07:10:37;;;;;;;1.30;0.75;;;21.20;99.90;;;20.82;100.00;101306.28;4145223;28;20092;-77
2023/08/10 07:12:38;;;;;;;1.80;0.90;;;21.20;99.90;;;20.75;100.00;101316.22;4139007;28;20146;-77
2023/08/10 07:14:39;;;;;;;2.25;1.17;;;21.20;99.90;;;20.68;100.00;101320.75;4134936;28;20062;-77
2023/08/10 07:16:39;;;;;;;1.25;0.90;;;21.10;99.90;;;20.58;100.00;101315.81;4150304;28;20021;-78
2023/08/10 07:18:41;;;;;;;1.63;1.10;;;21.00;99.90;;;20.53;100.00;101315.63;4128122;28;20033;-78
2023/08/10 07:20:41;;;;;;;2.03;1.33;;;21.00;99.90;;;20.52;100.00;101324.69;4154061;28;20030;-78
2023/08/10 07:22:45;;;;;;;1.48;1.05;;;20.90;99.90;;;20.52;100.00;101324.69;4137393;28;20038;-77
2023/08/10 07:24:46;;;;;;;2.28;1.33;;;20.90;99.90;;;20.53;100.00;101320.97;4138889;28;20018;-77
2023/08/10 07:26:47;;;;;;;1.60;1.25;;;20.90;99.90;;;20.53;100.00;101312.09;4139039;28;20042;-77
2023/08/10 07:28:48;;;;;;;2.70;1.05;;;21.00;99.90;;;20.51;100.00;101308.81;4137704;28;20018;-77
2023/08/10 07:30:50;;;;;;;2.13;1.02;;;21.00;99.90;;;20.55;100.00;101310.84;4137035;28;20042;-77
2023/08/10 07:32:51;;;;;;;1.73;1.23;;;21.00;99.90;;;20.66;100.00;101322.81;4138599;28;20034;-78
2023/08/10 07:34:52;;;;;;;2.35;0.95;;;21.10;99.90;;;20.79;100.00;101328.16;4138631;28;20501;-78
2023/08/10 07:36:53;;;;;;;3.40;1.27;;;21.20;99.90;;;20.93;100.00;101332.50;4146634;28;20041;-78
2023/08/10 07:38:55;;;;;;;2.03;1.00;;;21.30;99.90;;;21.08;100.00;101333.09;4137857;28;20498;-78
2023/08/10 07:40:56;;;;;;;2.28;1.30;;;21.40;99.90;;;21.18;100.00;101336.16;4138534;28;20030;-78
2023/08/10 07:42:57;;;;;;;1.75;1.10;;;21.50;99.90;;;21.22;100.00;101333.88;4138531;28;20073;-78
2023/08/10 07:44:58;;;;;;;2.15;1.30;;;21.60;99.90;;;21.26;100.00;101345.84;4138165;28;20014;-79
2023/08/10 07:46:59;;;;;;;2.72;1.08;;;21.60;99.90;;;21.25;100.00;101338.81;4137951;28;20121;-78
2023/08/10 07:49:00;;;;;;;2.88;1.17;;;21.70;99.90;;;21.34;100.00;101337.56;4138638;28;20030;-77
2023/08/10 07:51:01;;;;;;;1.50;0.93;;;21.70;99.90;;;21.39;100.00;101341.25;4138522;28;20037;-78
2023/08/10 07:53:03;;;;;;;1.77;0.90;;;21.80;99.90;;;21.41;100.00;101341.06;4137291;28;20049;-77
2023/08/10 07:55:05;;;;;;;1.30;0.90;;;21.80;99.90;;;21.37;100.00;101332.59;4137600;28;20068;-79
2023/08/10 07:57:06;;;;;;;1.50;0.85;;;21.80;99.90;;;21.38;100.00;101336.09;4138527;28;20030;-76
2023/08/10 07:59:06;;;;;;;2.42;0.98;;;21.80;99.90;;;21.42;100.00;101331.94;4137140;28;20030;-77
2023/08/10 08:01:08;;;;;;;1.70;1.02;;;21.90;99.90;;;21.45;100.00;101329.66;4152904;28;20049;-77
2023/08/10 08:03:09;;;;;;;1.30;0.80;;;21.90;99.90;;;21.47;100.00;101327.59;4121753;28;20078;-77
2023/08/10 08:05:10;;;;;;;1.48;1.05;;;21.90;99.90;;;21.55;100.00;101336.44;4136960;28;20026;-77
2023/08/10 08:07:11;;;;;;;1.60;1.20;;;22.00;99.90;;;21.62;100.00;101335.38;4137127;28;20458;-77
2023/08/10 08:09:12;;;;;;;1.98;1.30;;;22.00;99.90;;;21.72;100.00;101334.91;4136775;28;20078;-76
2023/08/10 08:11:13;;;;;;;3.53;1.42;;;22.10;99.90;;;21.86;100.00;101349.94;4137848;28;20022;-76
2023/08/10 08:13:14;;;;;;;2.97;1.15;;;22.20;99.90;;;21.98;100.00;101357.09;4136918;28;20081;-77
2023/08/10 08:15:15;;;;;;;2.30;1.17;;;22.40;99.90;;;22.17;100.00;101354.50;4137743;28;20057;-77
2023/08/10 08:17:16;;;;;;;1.67;1.10;;;22.50;99.90;;;22.24;100.00;101340.00;4141035;28;20037;-77
2023/08/10 08:19:17;;;;;;;1.98;1.10;;;22.60;99.90;;;22.27;100.00;101355.69;4151126;28;20072;-76
2023/08/10 08:21:21;;;;;;;1.88;1.17;;;22.70;99.90;;;22.36;100.00;101373.22;4120776;28;20030;-77